sensor_id;sensor_type;location;lat;lon;timestamp;pressure;altitude;pressure_sealevel;temperature;humidity
55466;BME280;41329;41.594;23.810;2023-07-08T00:01:42;95313.16;;;23.22;56.01
55466;BME280;41329;41.594;23.810;2023-07-08T00:04:07;95308.63;;;23.24;56.31
55466;BME280;41329;41.594;23.810;2023-07-08T00:06:32;95312.78;;;23.32;56.72
55466;BME280;41329;41.594;23.810;2023-07-08T00:08:58;95303.97;;;23.30;57.06
55466;BME280;41329;41.594;23.810;2023-07-08T00:11:24;95309.84;;;23.36;56.71
55466;BME280;41329;41.594;23.810;2023-07-08T00:13:50;95315.34;;;23.39;57.33
55466;BME280;41329;41.594;23.810;2023-07-08T00:16:17;95308.94;;;23.39;57.13
55466;BME280;41329;41.594;23.810;2023-07-08T00:18:43;95307.69;;;23.40;56.51
55466;BME280;41329;41.594;23.810;2023-07-08T00:21:14;95286.81;;;23.25;56.65
55466;BME280;41329;41.594;23.810;2023-07-08T00:23:50;95291.91;;;23.30;56.32
55466;BME280;41329;41.594;23.810;2023-07-08T00:28:45;95281.06;;;23.28;56.22
55466;BME280;41329;41.594;23.810;2023-07-08T00:31:11;95274.06;;;23.20;56.02
55466;BME280;41329;41.594;23.810;2023-07-08T00:33:37;95285.13;;;23.15;55.78
55466;BME280;41329;41.594;23.810;2023-07-08T00:36:11;95287.94;;;23.15;56.05
55466;BME280;41329;41.594;23.810;2023-07-08T00:38:38;95265.25;;;23.06;56.66
55466;BME280;41329;41.594;23.810;2023-07-08T00:41:39;95271.03;;;23.02;56.78
55466;BME280;41329;41.594;23.810;2023-07-08T00:44:10;95283.31;;;23.08;56.63
55466;BME280;41329;41.594;23.810;2023-07-08T00:46:55;95287.28;;;22.98;56.43
55466;BME280;41329;41.594;23.810;2023-07-08T00:51:48;95290.78;;;23.02;56.91
55466;BME280;41329;41.594;23.810;2023-07-08T00:54:15;95287.28;;;22.98;56.91
55466;BME280;41329;41.594;23.810;2023-07-08T00:57:00;95297.44;;;22.95;56.91
55466;BME280;41329;41.594;23.810;2023-07-08T00:59:31;95285.00;;;22.93;56.46
55466;BME280;41329;41.594;23.810;2023-07-08T01:01:58;95283.88;;;22.90;56.39
55466;BME280;41329;41.594;23.810;2023-07-08T01:04:33;95272.84;;;22.83;56.84
55466;BME280;41329;41.594;23.810;2023-07-08T01:07:01;95287.84;;;22.93;57.25
55466;BME280;41329;41.594;23.810;2023-07-08T01:09:36;95278.69;;;22.89;57.47
55466;BME280;41329;41.594;23.810;2023-07-08T01:12:10;95266.84;;;22.81;57.39
55466;BME280;41329;41.594;23.810;2023-07-08T01:14:38;95285.81;;;22.93;57.57
55466;BME280;41329;41.594;23.810;2023-07-08T01:17:07;95249.59;;;22.67;57.69
55466;BME280;41329;41.594;23.810;2023-07-08T01:19:33;95275.19;;;22.85;58.19
55466;BME280;41329;41.594;23.810;2023-07-08T01:21:59;95294.41;;;22.90;58.07
55466;BME280;41329;41.594;23.810;2023-07-08T01:24:25;95291.81;;;22.83;58.49
55466;BME280;41329;41.594;23.810;2023-07-08T01:26:51;95265.28;;;22.68;58.48
55466;BME280;41329;41.594;23.810;2023-07-08T01:29:17;95277.69;;;22.83;58.45
55466;BME280;41329;41.594;23.810;2023-07-08T01:31:42;95277.81;;;22.79;58.17
55466;BME280;41329;41.594;23.810;2023-07-08T01:34:14;95278.59;;;22.80;58.11
55466;BME280;41329;41.594;23.810;2023-07-08T01:36:44;95265.84;;;22.75;58.33
55466;BME280;41329;41.594;23.810;2023-07-08T01:39:17;95267.44;;;22.76;58.09
55466;BME280;41329;41.594;23.810;2023-07-08T01:41:45;95274.41;;;22.72;57.84
55466;BME280;41329;41.594;23.810;2023-07-08T01:44:31;95273.53;;;22.62;57.92
55466;BME280;41329;41.594;23.810;2023-07-08T01:47:00;95279.38;;;22.55;58.20
55466;BME280;41329;41.594;23.810;2023-07-08T01:49:28;95271.56;;;22.47;58.03
55466;BME280;41329;41.594;23.810;2023-07-08T01:51:55;95263.31;;;22.40;57.83
55466;BME280;41329;41.594;23.810;2023-07-08T01:54:20;95256.44;;;22.28;58.05
55466;BME280;41329;41.594;23.810;2023-07-08T01:56:46;95259.34;;;22.25;58.79
55466;BME280;41329;41.594;23.810;2023-07-08T01:59:11;95260.59;;;22.24;58.65
55466;BME280;41329;41.594;23.810;2023-07-08T02:01:37;95258.53;;;22.12;58.77
55466;BME280;41329;41.594;23.810;2023-07-08T02:04:02;95262.25;;;22.09;58.34
55466;BME280;41329;41.594;23.810;2023-07-08T02:06:28;95244.06;;;21.97;58.69
55466;BME280;41329;41.594;23.810;2023-07-08T02:08:53;95259.28;;;22.00;58.70
55466;BME280;41329;41.594;23.810;2023-07-08T02:11:20;95277.69;;;22.04;59.15
55466;BME280;41329;41.594;23.810;2023-07-08T02:13:45;95264.91;;;21.87;58.87
55466;BME280;41329;41.594;23.810;2023-07-08T02:16:10;95259.81;;;21.82;59.08
55466;BME280;41329;41.594;23.810;2023-07-08T02:18:36;95282.69;;;21.84;58.53
55466;BME280;41329;41.594;23.810;2023-07-08T02:21:02;95271.03;;;21.70;58.90
55466;BME280;41329;41.594;23.810;2023-07-08T02:23:27;95285.63;;;21.81;59.02
55466;BME280;41329;41.594;23.810;2023-07-08T02:25:54;95283.69;;;21.78;59.25
55466;BME280;41329;41.594;23.810;2023-07-08T02:28:20;95288.97;;;21.76;59.25
55466;BME280;41329;41.594;23.810;2023-07-08T02:30:46;95276.66;;;21.70;59.05
55466;BME280;41329;41.594;23.810;2023-07-08T02:33:12;95285.13;;;21.70;59.32
55466;BME280;41329;41.594;23.810;2023-07-08T02:35:40;95286.75;;;21.67;58.92
55466;BME280;41329;41.594;23.810;2023-07-08T02:38:05;95294.63;;;21.60;59.22
55466;BME280;41329;41.594;23.810;2023-07-08T02:40:30;95287.06;;;21.57;59.57
55466;BME280;41329;41.594;23.810;2023-07-08T02:42:56;95296.75;;;21.56;59.40
55466;BME280;41329;41.594;23.810;2023-07-08T02:45:21;95302.44;;;21.52;59.27
55466;BME280;41329;41.594;23.810;2023-07-08T02:47:46;95289.72;;;21.48;59.22
55466;BME280;41329;41.594;23.810;2023-07-08T02:50:12;95285.13;;;21.38;59.20
55466;BME280;41329;41.594;23.810;2023-07-08T02:52:38;95295.63;;;21.37;59.57
55466;BME280;41329;41.594;23.810;2023-07-08T02:55:04;95291.31;;;21.33;59.54
55466;BME280;41329;41.594;23.810;2023-07-08T02:57:30;95277.25;;;21.17;59.74
55466;BME280;41329;41.594;23.810;2023-07-08T02:59:55;95290.81;;;21.22;59.76
55466;BME280;41329;41.594;23.810;2023-07-08T03:02:22;95275.50;;;21.07;59.74
55466;BME280;41329;41.594;23.810;2023-07-08T03:04:48;95293.97;;;21.08;59.55
55466;BME280;41329;41.594;23.810;2023-07-08T03:07:15;95281.94;;;20.91;59.67
55466;BME280;41329;41.594;23.810;2023-07-08T03:09:41;95291.94;;;20.92;59.88
55466;BME280;41329;41.594;23.810;2023-07-08T03:12:08;95279.78;;;20.63;59.80
55466;BME280;41329;41.594;23.810;2023-07-08T03:14:34;95255.72;;;20.27;60.46
55466;BME280;41329;41.594;23.810;2023-07-08T03:17:00;95309.56;;;20.61;60.45
55466;BME280;41329;41.594;23.810;2023-07-08T03:19:25;95308.78;;;20.60;60.53
55466;BME280;41329;41.594;23.810;2023-07-08T03:21:51;95301.59;;;20.40;60.81
55466;BME280;41329;41.594;23.810;2023-07-08T03:24:17;95307.84;;;20.47;60.71
55466;BME280;41329;41.594;23.810;2023-07-08T03:26:44;95316.78;;;20.42;60.48
55466;BME280;41329;41.594;23.810;2023-07-08T03:29:14;95321.19;;;20.43;60.97
55466;BME280;41329;41.594;23.810;2023-07-08T03:31:40;95321.56;;;20.45;61.68
55466;BME280;41329;41.594;23.810;2023-07-08T03:34:09;95330.94;;;20.39;62.28
55466;BME280;41329;41.594;23.810;2023-07-08T03:36:36;95319.19;;;20.44;62.44
55466;BME280;41329;41.594;23.810;2023-07-08T03:39:05;95331.50;;;20.50;62.26
55466;BME280;41329;41.594;23.810;2023-07-08T03:41:30;95337.13;;;20.50;62.29
55466;BME280;41329;41.594;23.810;2023-07-08T03:43:56;95333.94;;;20.48;62.12
55466;BME280;41329;41.594;23.810;2023-07-08T03:46:21;95325.88;;;20.50;61.84
55466;BME280;41329;41.594;23.810;2023-07-08T03:48:48;95321.13;;;20.47;61.36
55466;BME280;41329;41.594;23.810;2023-07-08T03:51:24;95332.28;;;20.50;61.49
55466;BME280;41329;41.594;23.810;2023-07-08T03:53:51;95349.78;;;20.58;61.82
55466;BME280;41329;41.594;23.810;2023-07-08T03:56:17;95349.78;;;20.58;61.91
55466;BME280;41329;41.594;23.810;2023-07-08T03:58:42;95356.09;;;20.62;62.06
55466;BME280;41329;41.594;23.810;2023-07-08T04:01:18;95357.72;;;20.63;62.10
55466;BME280;41329;41.594;23.810;2023-07-08T04:03:46;95359.56;;;20.69;62.23
55466;BME280;41329;41.594;23.810;2023-07-08T04:06:12;95365.44;;;20.75;62.74
55466;BME280;41329;41.594;23.810;2023-07-08T04:08:37;95366.16;;;20.79;62.38
55466;BME280;41329;41.594;23.810;2023-07-08T04:11:03;95375.31;;;20.83;62.54
55466;BME280;41329;41.594;23.810;2023-07-08T04:13:28;95358.63;;;20.76;62.10
55466;BME280;41329;41.594;23.810;2023-07-08T04:15:56;95361.88;;;20.74;61.89
55466;BME280;41329;41.594;23.810;2023-07-08T04:18:22;95368.06;;;20.66;61.71
55466;BME280;41329;41.594;23.810;2023-07-08T04:20:47;95368.31;;;20.55;62.05
55466;BME280;41329;41.594;23.810;2023-07-08T04:23:20;95355.56;;;20.51;62.45
55466;BME280;41329;41.594;23.810;2023-07-08T04:25:51;95364.00;;;20.51;63.13
55466;BME280;41329;41.594;23.810;2023-07-08T04:28:18;95369.03;;;20.59;63.02
55466;BME280;41329;41.594;23.810;2023-07-08T04:30:43;95355.56;;;20.51;63.41
55466;BME280;41329;41.594;23.810;2023-07-08T04:33:10;95368.00;;;20.69;63.56
55466;BME280;41329;41.594;23.810;2023-07-08T04:35:36;95379.88;;;20.77;64.03
55466;BME280;41329;41.594;23.810;2023-07-08T04:38:05;95367.81;;;20.76;64.15
55466;BME280;41329;41.594;23.810;2023-07-08T04:40:35;95355.69;;;20.63;63.89
55466;BME280;41329;41.594;23.810;2023-07-08T04:43:08;95394.13;;;20.86;63.81
55466;BME280;41329;41.594;23.810;2023-07-08T04:45:36;95389.66;;;20.88;63.40
55466;BME280;41329;41.594;23.810;2023-07-08T04:48:03;95372.28;;;20.93;63.75
55466;BME280;41329;41.594;23.810;2023-07-08T04:50:34;95376.88;;;21.03;63.22
55466;BME280;41329;41.594;23.810;2023-07-08T04:52:59;95365.69;;;21.00;63.50
55466;BME280;41329;41.594;23.810;2023-07-08T04:55:25;95382.97;;;21.18;62.93
55466;BME280;41329;41.594;23.810;2023-07-08T04:57:50;95378.03;;;21.22;62.18
55466;BME280;41329;41.594;23.810;2023-07-08T05:00:17;95359.56;;;21.21;62.37
55466;BME280;41329;41.594;23.810;2023-07-08T05:02:44;95379.78;;;21.32;62.25
55466;BME280;41329;41.594;23.810;2023-07-08T05:05:11;95371.25;;;21.35;61.93
55466;BME280;41329;41.594;23.810;2023-07-08T05:07:36;95390.69;;;21.46;61.89
55466;BME280;41329;41.594;23.810;2023-07-08T05:10:02;95374.16;;;21.48;61.35
55466;BME280;41329;41.594;23.810;2023-07-08T05:12:27;95374.06;;;21.51;61.11
55466;BME280;41329;41.594;23.810;2023-07-08T05:14:53;95368.38;;;21.55;60.21
55466;BME280;41329;41.594;23.810;2023-07-08T05:17:18;95365.88;;;21.57;59.95
55466;BME280;41329;41.594;23.810;2023-07-08T05:19:43;95385.06;;;21.78;59.23
55466;BME280;41329;41.594;23.810;2023-07-08T05:22:11;95353.38;;;21.58;59.17
55466;BME280;41329;41.594;23.810;2023-07-08T05:24:37;95370.44;;;21.83;59.23
55466;BME280;41329;41.594;23.810;2023-07-08T05:27:02;95377.63;;;22.00;59.54
55466;BME280;41329;41.594;23.810;2023-07-08T05:29:29;95359.25;;;21.95;59.26
55466;BME280;41329;41.594;23.810;2023-07-08T05:31:54;95374.66;;;22.19;58.74
55466;BME280;41329;41.594;23.810;2023-07-08T05:34:19;95383.28;;;22.28;57.17
55466;BME280;41329;41.594;23.810;2023-07-08T05:36:45;95384.94;;;22.26;56.83
55466;BME280;41329;41.594;23.810;2023-07-08T05:39:10;95377.97;;;22.30;57.10
55466;BME280;41329;41.594;23.810;2023-07-08T05:41:36;95358.81;;;22.25;56.05
55466;BME280;41329;41.594;23.810;2023-07-08T05:44:01;95368.72;;;22.30;56.10
55466;BME280;41329;41.594;23.810;2023-07-08T05:46:27;95374.97;;;22.37;55.78
55466;BME280;41329;41.594;23.810;2023-07-08T05:48:52;95364.47;;;22.38;55.56
55466;BME280;41329;41.594;23.810;2023-07-08T05:51:17;95367.94;;;22.58;55.90
55466;BME280;41329;41.594;23.810;2023-07-08T05:53:43;95383.91;;;22.48;54.07
55466;BME280;41329;41.594;23.810;2023-07-08T05:56:08;95372.38;;;22.43;55.44
55466;BME280;41329;41.594;23.810;2023-07-08T05:58:34;95361.19;;;22.39;55.94
55466;BME280;41329;41.594;23.810;2023-07-08T06:00:59;95384.53;;;22.56;54.98
55466;BME280;41329;41.594;23.810;2023-07-08T06:03:25;95380.22;;;22.64;55.51
55466;BME280;41329;41.594;23.810;2023-07-08T06:05:50;95356.53;;;22.61;54.75
55466;BME280;41329;41.594;23.810;2023-07-08T06:08:16;95381.84;;;22.77;54.40
55466;BME280;41329;41.594;23.810;2023-07-08T06:10:43;95382.97;;;22.80;53.11
55466;BME280;41329;41.594;23.810;2023-07-08T06:13:09;95383.22;;;22.85;53.90
55466;BME280;41329;41.594;23.810;2023-07-08T06:15:34;95377.44;;;22.89;53.83
55466;BME280;41329;41.594;23.810;2023-07-08T06:17:59;95387.97;;;23.01;54.16
55466;BME280;41329;41.594;23.810;2023-07-08T06:20:27;95370.59;;;23.02;53.99
55466;BME280;41329;41.594;23.810;2023-07-08T06:22:53;95384.50;;;23.22;54.70
55466;BME280;41329;41.594;23.810;2023-07-08T06:25:19;95388.69;;;23.30;53.17
55466;BME280;41329;41.594;23.810;2023-07-08T06:27:44;95369.16;;;23.23;53.35
55466;BME280;41329;41.594;23.810;2023-07-08T06:30:10;95387.19;;;23.38;52.56
55466;BME280;41329;41.594;23.810;2023-07-08T06:32:35;95367.44;;;23.38;52.48
55466;BME280;41329;41.594;23.810;2023-07-08T06:35:01;95378.16;;;23.56;51.95
55466;BME280;41329;41.594;23.810;2023-07-08T06:37:26;95383.91;;;23.65;51.52
55466;BME280;41329;41.594;23.810;2023-07-08T06:39:51;95379.38;;;23.67;52.76
55466;BME280;41329;41.594;23.810;2023-07-08T06:42:18;95368.97;;;23.77;52.55
55466;BME280;41329;41.594;23.810;2023-07-08T06:44:43;95364.72;;;23.60;53.25
55466;BME280;41329;41.594;23.810;2023-07-08T06:47:19;95384.22;;;23.67;52.81
55466;BME280;41329;41.594;23.810;2023-07-08T06:49:46;95390.00;;;23.63;52.53
55466;BME280;41329;41.594;23.810;2023-07-08T06:52:11;95386.38;;;23.75;51.95
55466;BME280;41329;41.594;23.810;2023-07-08T06:54:36;95396.41;;;23.89;51.44
55466;BME280;41329;41.594;23.810;2023-07-08T06:57:02;95396.50;;;23.98;50.91
55466;BME280;41329;41.594;23.810;2023-07-08T06:59:27;95400.88;;;24.11;51.25
55466;BME280;41329;41.594;23.810;2023-07-08T07:01:54;95393.72;;;24.19;50.23
55466;BME280;41329;41.594;23.810;2023-07-08T07:04:19;95398.00;;;24.24;50.78
55466;BME280;41329;41.594;23.810;2023-07-08T07:06:45;95399.66;;;24.34;50.52
55466;BME280;41329;41.594;23.810;2023-07-08T07:09:10;95386.16;;;24.38;49.82
55466;BME280;41329;41.594;23.810;2023-07-08T07:11:35;95385.06;;;24.57;49.87
55466;BME280;41329;41.594;23.810;2023-07-08T07:14:01;95386.31;;;24.77;50.47
55466;BME280;41329;41.594;23.810;2023-07-08T07:16:27;95388.94;;;24.93;51.05
55466;BME280;41329;41.594;23.810;2023-07-08T07:18:52;95390.28;;;25.10;51.20
55466;BME280;41329;41.594;23.810;2023-07-08T07:21:18;95378.81;;;25.14;50.42
55466;BME280;41329;41.594;23.810;2023-07-08T07:23:43;95386.22;;;25.42;50.96
55466;BME280;41329;41.594;23.810;2023-07-08T07:26:09;95377.91;;;25.47;48.77
55466;BME280;41329;41.594;23.810;2023-07-08T07:28:34;95374.16;;;25.59;48.75
55466;BME280;41329;41.594;23.810;2023-07-08T07:30:59;95391.66;;;25.67;46.98
55466;BME280;41329;41.594;23.810;2023-07-08T07:33:26;95378.31;;;25.76;47.52
55466;BME280;41329;41.594;23.810;2023-07-08T07:35:51;95374.66;;;25.67;46.76
55466;BME280;41329;41.594;23.810;2023-07-08T07:38:17;95383.34;;;25.72;47.11
55466;BME280;41329;41.594;23.810;2023-07-08T07:40:43;95376.59;;;25.88;47.74
55466;BME280;41329;41.594;23.810;2023-07-08T07:43:09;95378.78;;;25.84;46.61
55466;BME280;41329;41.594;23.810;2023-07-08T07:45:35;95374.38;;;25.83;46.18
55466;BME280;41329;41.594;23.810;2023-07-08T07:48:01;95374.25;;;25.95;46.82
55466;BME280;41329;41.594;23.810;2023-07-08T07:50:27;95362.00;;;26.07;48.21
55466;BME280;41329;41.594;23.810;2023-07-08T07:52:52;95361.38;;;26.30;47.92
55466;BME280;41329;41.594;23.810;2023-07-08T07:55:18;95365.78;;;26.58;47.42
55466;BME280;41329;41.594;23.810;2023-07-08T07:57:43;95352.88;;;26.57;46.14
55466;BME280;41329;41.594;23.810;2023-07-08T08:00:11;95347.97;;;26.67;45.59
55466;BME280;41329;41.594;23.810;2023-07-08T08:02:37;95366.56;;;26.68;44.56
55466;BME280;41329;41.594;23.810;2023-07-08T08:05:02;95352.22;;;26.62;45.67
55466;BME280;41329;41.594;23.810;2023-07-08T08:07:28;95367.66;;;26.88;44.34
55466;BME280;41329;41.594;23.810;2023-07-08T08:09:53;95364.81;;;26.97;41.55
55466;BME280;41329;41.594;23.810;2023-07-08T08:12:18;95349.34;;;26.89;41.94
55466;BME280;41329;41.594;23.810;2023-07-08T08:14:44;95352.47;;;27.00;41.40
55466;BME280;41329;41.594;23.810;2023-07-08T08:17:09;95343.47;;;27.02;42.76
55466;BME280;41329;41.594;23.810;2023-07-08T08:19:35;95334.44;;;27.12;42.25
55466;BME280;41329;41.594;23.810;2023-07-08T08:22:00;95347.97;;;27.35;39.91
55466;BME280;41329;41.594;23.810;2023-07-08T08:24:26;95342.84;;;27.48;41.16
55466;BME280;41329;41.594;23.810;2023-07-08T08:26:51;95359.94;;;27.72;40.55
55466;BME280;41329;41.594;23.810;2023-07-08T08:29:17;95354.53;;;27.83;40.75
55466;BME280;41329;41.594;23.810;2023-07-08T08:31:42;95340.41;;;27.89;39.73
55466;BME280;41329;41.594;23.810;2023-07-08T08:34:08;95352.31;;;28.11;38.02
55466;BME280;41329;41.594;23.810;2023-07-08T08:36:33;95350.59;;;28.04;38.22
55466;BME280;41329;41.594;23.810;2023-07-08T08:38:58;95340.75;;;27.91;37.09
55466;BME280;41329;41.594;23.810;2023-07-08T08:41:30;95352.00;;;27.76;36.99
55466;BME280;41329;41.594;23.810;2023-07-08T08:43:57;95336.34;;;27.80;38.07
55466;BME280;41329;41.594;23.810;2023-07-08T08:46:34;95331.53;;;27.96;37.42
55466;BME280;41329;41.594;23.810;2023-07-08T08:51:50;95334.09;;;27.61;35.95
55466;BME280;41329;41.594;23.810;2023-07-08T08:54:16;95328.16;;;27.50;37.32
55466;BME280;41329;41.594;23.810;2023-07-08T08:59:42;95331.78;;;28.07;37.73
55466;BME280;41329;41.594;23.810;2023-07-08T09:02:41;95330.88;;;28.39;36.26
55466;BME280;41329;41.594;23.810;2023-07-08T09:05:11;95307.28;;;28.47;36.42
55466;BME280;41329;41.594;23.810;2023-07-08T09:08:02;95313.00;;;28.76;35.81
55466;BME280;41329;41.594;23.810;2023-07-08T09:10:32;95342.97;;;29.01;35.64
55466;BME280;41329;41.594;23.810;2023-07-08T09:13:05;95327.34;;;29.11;35.37
55466;BME280;41329;41.594;23.810;2023-07-08T09:15:32;95318.88;;;29.31;35.72
55466;BME280;41329;41.594;23.810;2023-07-08T09:18:10;95329.84;;;29.52;34.16
55466;BME280;41329;41.594;23.810;2023-07-08T09:20:40;95318.56;;;29.58;33.80
55466;BME280;41329;41.594;23.810;2023-07-08T09:25:54;95318.84;;;29.60;32.57
55466;BME280;41329;41.594;23.810;2023-07-08T09:28:21;95320.31;;;29.55;32.98
55466;BME280;41329;41.594;23.810;2023-07-08T09:31:00;95312.94;;;29.63;33.97
55466;BME280;41329;41.594;23.810;2023-07-08T09:33:25;95294.47;;;29.44;32.26
55466;BME280;41329;41.594;23.810;2023-07-08T09:35:51;95313.72;;;29.64;34.85
55466;BME280;41329;41.594;23.810;2023-07-08T09:38:18;95307.75;;;29.82;34.33
55466;BME280;41329;41.594;23.810;2023-07-08T09:40:50;95295.72;;;29.92;34.01
55466;BME280;41329;41.594;23.810;2023-07-08T09:43:43;95315.22;;;30.14;31.70
55466;BME280;41329;41.594;23.810;2023-07-08T09:46:12;95301.16;;;30.10;32.61
55466;BME280;41329;41.594;23.810;2023-07-08T09:48:37;95289.63;;;30.19;32.11
55466;BME280;41329;41.594;23.810;2023-07-08T09:51:03;95294.59;;;30.24;31.76
55466;BME280;41329;41.594;23.810;2023-07-08T09:53:29;95284.91;;;30.16;32.96
55466;BME280;41329;41.594;23.810;2023-07-08T09:55:59;95279.53;;;30.24;32.39
55466;BME280;41329;41.594;23.810;2023-07-08T09:58:29;95276.25;;;30.11;32.16
55466;BME280;41329;41.594;23.810;2023-07-08T10:00:59;95277.75;;;29.86;31.93
55466;BME280;41329;41.594;23.810;2023-07-08T10:03:32;95280.44;;;29.75;33.83
55466;BME280;41329;41.594;23.810;2023-07-08T10:06:03;95262.03;;;29.96;35.14
55466;BME280;41329;41.594;23.810;2023-07-08T10:08:37;95267.69;;;30.31;34.17
55466;BME280;41329;41.594;23.810;2023-07-08T10:11:26;95251.47;;;30.42;33.31
55466;BME280;41329;41.594;23.810;2023-07-08T10:14:05;95247.38;;;30.49;32.36
55466;BME280;41329;41.594;23.810;2023-07-08T10:16:33;95245.19;;;30.38;33.29
55466;BME280;41329;41.594;23.810;2023-07-08T10:18:59;95253.63;;;30.73;33.60
55466;BME280;41329;41.594;23.810;2023-07-08T10:21:43;95252.69;;;30.81;30.80
55466;BME280;41329;41.594;23.810;2023-07-08T10:27:37;95245.59;;;31.02;32.35
55466;BME280;41329;41.594;23.810;2023-07-08T10:43:25;95238.16;;;31.47;31.46
55466;BME280;41329;41.594;23.810;2023-07-08T10:56:47;95215.47;;;31.80;30.01
55466;BME280;41329;41.594;23.810;2023-07-08T10:59:38;95222.41;;;31.68;30.23
55466;BME280;41329;41.594;23.810;2023-07-08T11:07:39;95225.53;;;32.23;29.73
55466;BME280;41329;41.594;23.810;2023-07-08T11:10:19;95219.00;;;32.11;28.29
55466;BME280;41329;41.594;23.810;2023-07-08T11:12:54;95211.41;;;31.55;27.77
55466;BME280;41329;41.594;23.810;2023-07-08T11:15:28;95201.53;;;31.20;28.86
55466;BME280;41329;41.594;23.810;2023-07-08T11:18:13;95205.66;;;30.82;29.36
55466;BME280;41329;41.594;23.810;2023-07-08T11:23:17;95191.78;;;30.70;30.98
55466;BME280;41329;41.594;23.810;2023-07-08T11:25:45;95200.22;;;30.84;30.78
55466;BME280;41329;41.594;23.810;2023-07-08T11:28:16;95207.53;;;30.91;31.55
55466;BME280;41329;41.594;23.810;2023-07-08T11:30:44;95194.84;;;30.92;32.98
55466;BME280;41329;41.594;23.810;2023-07-08T11:33:13;95201.69;;;31.05;31.88
55466;BME280;41329;41.594;23.810;2023-07-08T11:35:45;95204.13;;;31.18;33.47
55466;BME280;41329;41.594;23.810;2023-07-08T11:38:17;95188.16;;;31.37;33.59
55466;BME280;41329;41.594;23.810;2023-07-08T11:43:16;95193.28;;;31.69;31.22
55466;BME280;41329;41.594;23.810;2023-07-08T11:45:43;95178.44;;;31.65;32.32
55466;BME280;41329;41.594;23.810;2023-07-08T11:48:16;95191.72;;;31.68;31.52
55466;BME280;41329;41.594;23.810;2023-07-08T11:50:45;95182.06;;;31.66;31.37
55466;BME280;41329;41.594;23.810;2023-07-08T11:53:31;95175.28;;;31.58;30.98
55466;BME280;41329;41.594;23.810;2023-07-08T12:01:32;95194.94;;;31.39;32.81
55466;BME280;41329;41.594;23.810;2023-07-08T12:06:48;95211.78;;;31.32;33.05
55466;BME280;41329;41.594;23.810;2023-07-08T12:09:27;95208.88;;;31.26;33.15
55466;BME280;41329;41.594;23.810;2023-07-08T12:11:58;95217.13;;;31.19;33.33
55466;BME280;41329;41.594;23.810;2023-07-08T12:14:25;95208.94;;;31.32;34.76
55466;BME280;41329;41.594;23.810;2023-07-08T12:16:55;95203.50;;;31.39;33.08
55466;BME280;41329;41.594;23.810;2023-07-08T12:19:22;95211.81;;;31.37;32.99
55466;BME280;41329;41.594;23.810;2023-07-08T12:21:51;95229.22;;;31.34;32.54
55466;BME280;41329;41.594;23.810;2023-07-08T12:24:17;95214.88;;;31.28;31.82
55466;BME280;41329;41.594;23.810;2023-07-08T12:26:44;95220.06;;;31.24;32.56
55466;BME280;41329;41.594;23.810;2023-07-08T12:29:12;95230.69;;;31.24;32.07
55466;BME280;41329;41.594;23.810;2023-07-08T12:31:39;95217.56;;;31.06;32.70
55466;BME280;41329;41.594;23.810;2023-07-08T12:34:13;95229.00;;;31.06;32.74
55466;BME280;41329;41.594;23.810;2023-07-08T12:36:42;95233.88;;;31.00;32.95
55466;BME280;41329;41.594;23.810;2023-07-08T12:39:11;95244.97;;;30.93;32.52
55466;BME280;41329;41.594;23.810;2023-07-08T12:41:41;95246.03;;;30.95;32.85
55466;BME280;41329;41.594;23.810;2023-07-08T12:44:20;95244.88;;;30.82;32.93
55466;BME280;41329;41.594;23.810;2023-07-08T12:46:47;95241.06;;;30.65;33.05
55466;BME280;41329;41.594;23.810;2023-07-08T12:49:15;95239.06;;;30.71;33.22
55466;BME280;41329;41.594;23.810;2023-07-08T12:51:42;95244.25;;;30.72;33.56
55466;BME280;41329;41.594;23.810;2023-07-08T12:54:09;95238.72;;;30.89;32.20
55466;BME280;41329;41.594;23.810;2023-07-08T12:56:35;95237.84;;;30.77;32.38
55466;BME280;41329;41.594;23.810;2023-07-08T12:59:02;95246.19;;;30.81;32.67
55466;BME280;41329;41.594;23.810;2023-07-08T13:01:30;95240.50;;;30.86;33.72
55466;BME280;41329;41.594;23.810;2023-07-08T13:03:59;95236.16;;;30.96;32.73
55466;BME280;41329;41.594;23.810;2023-07-08T13:06:27;95240.09;;;30.99;34.05
55466;BME280;41329;41.594;23.810;2023-07-08T13:08:57;95240.94;;;31.05;34.06
55466;BME280;41329;41.594;23.810;2023-07-08T13:11:27;95226.53;;;30.94;34.14
55466;BME280;41329;41.594;23.810;2023-07-08T13:13:58;95233.78;;;30.64;33.89
55466;BME280;41329;41.594;23.810;2023-07-08T13:16:31;95232.28;;;30.68;33.76
55466;BME280;41329;41.594;23.810;2023-07-08T13:18:57;95243.56;;;30.83;34.88
55466;BME280;41329;41.594;23.810;2023-07-08T13:21:23;95253.06;;;30.94;36.19
55466;BME280;41329;41.594;23.810;2023-07-08T13:23:53;95234.38;;;30.99;35.69
55466;BME280;41329;41.594;23.810;2023-07-08T13:26:21;95246.16;;;31.12;35.70
55466;BME280;41329;41.594;23.810;2023-07-08T13:28:48;95244.22;;;31.23;35.94
55466;BME280;41329;41.594;23.810;2023-07-08T13:31:23;95233.34;;;31.27;35.93
55466;BME280;41329;41.594;23.810;2023-07-08T13:33:53;95225.56;;;31.33;34.15
55466;BME280;41329;41.594;23.810;2023-07-08T13:36:28;95233.56;;;31.24;32.48
55466;BME280;41329;41.594;23.810;2023-07-08T13:38:54;95235.25;;;31.41;33.83
55466;BME280;41329;41.594;23.810;2023-07-08T13:41:21;95232.28;;;31.67;34.85
55466;BME280;41329;41.594;23.810;2023-07-08T13:43:47;95234.66;;;31.74;32.21
55466;BME280;41329;41.594;23.810;2023-07-08T13:46:40;95230.13;;;31.98;32.38
55466;BME280;41329;41.594;23.810;2023-07-08T13:49:25;95238.63;;;32.35;33.94
55466;BME280;41329;41.594;23.810;2023-07-08T13:52:05;95242.59;;;32.65;33.10
55466;BME280;41329;41.594;23.810;2023-07-08T13:54:38;95236.34;;;32.72;30.03
55466;BME280;41329;41.594;23.810;2023-07-08T13:57:09;95232.75;;;32.83;31.54